sensor_id;sensor_type;location;lat;lon;timestamp;pressure;altitude;pressure_sealevel;temperature;humidity
61345;BME280;47216;42.656;23.232;2023-07-08T00:01:28;94234.59;;;18.95;76.94
61345;BME280;47216;42.656;23.232;2023-07-08T00:03:58;94239.13;;;19.08;76.54
61345;BME280;47216;42.656;23.232;2023-07-08T00:06:58;94247.38;;;19.06;76.41
61345;BME280;47216;42.656;23.232;2023-07-08T00:09:47;94237.88;;;19.05;75.71
61345;BME280;47216;42.656;23.232;2023-07-08T00:12:28;94243.28;;;19.14;75.27
61345;BME280;47216;42.656;23.232;2023-07-08T00:15:07;94236.84;;;19.20;75.33
61345;BME280;47216;42.656;23.232;2023-07-08T00:17:58;94214.28;;;19.09;74.49
61345;BME280;47216;42.656;23.232;2023-07-08T00:20:37;94213.28;;;19.05;74.44
61345;BME280;47216;42.656;23.232;2023-07-08T00:23:23;94207.63;;;19.12;74.51
61345;BME280;47216;42.656;23.232;2023-07-08T00:25:58;94215.75;;;19.15;74.98
61345;BME280;47216;42.656;23.232;2023-07-08T00:28:29;94214.34;;;19.04;75.15
61345;BME280;47216;42.656;23.232;2023-07-08T00:31:23;94211.16;;;19.07;75.34
61345;BME280;47216;42.656;23.232;2023-07-08T00:33:59;94217.41;;;18.97;75.68
61345;BME280;47216;42.656;23.232;2023-07-08T00:36:46;94218.09;;;19.03;75.36
61345;BME280;47216;42.656;23.232;2023-07-08T00:39:29;94216.81;;;19.00;76.17
61345;BME280;47216;42.656;23.232;2023-07-08T00:42:01;94204.88;;;19.03;74.84
61345;BME280;47216;42.656;23.232;2023-07-08T00:44:54;94205.38;;;19.05;74.75
61345;BME280;47216;42.656;23.232;2023-07-08T00:47:35;94209.66;;;19.01;74.45
61345;BME280;47216;42.656;23.232;2023-07-08T00:50:21;94208.38;;;18.98;74.47
61345;BME280;47216;42.656;23.232;2023-07-08T00:53:28;94205.13;;;18.87;75.11
61345;BME280;47216;42.656;23.232;2023-07-08T00:56:02;94201.56;;;18.78;75.17
61345;BME280;47216;42.656;23.232;2023-07-08T00:58:54;94195.72;;;18.81;75.13
61345;BME280;47216;42.656;23.232;2023-07-08T01:01:29;94198.94;;;18.78;75.23
61345;BME280;47216;42.656;23.232;2023-07-08T01:06:59;94195.66;;;18.67;75.32
61345;BME280;47216;42.656;23.232;2023-07-08T01:10:00;94192.47;;;18.52;75.78
61345;BME280;47216;42.656;23.232;2023-07-08T01:12:54;94189.84;;;18.52;75.95
61345;BME280;47216;42.656;23.232;2023-07-08T01:15:37;94201.97;;;18.53;75.86
61345;BME280;47216;42.656;23.232;2023-07-08T01:18:28;94196.75;;;18.47;76.08
61345;BME280;47216;42.656;23.232;2023-07-08T01:21:32;94191.97;;;18.50;75.97
61345;BME280;47216;42.656;23.232;2023-07-08T01:24:32;94193.44;;;18.42;75.98
61345;BME280;47216;42.656;23.232;2023-07-08T01:27:25;94191.56;;;18.42;76.22
61345;BME280;47216;42.656;23.232;2023-07-08T01:30:27;94176.91;;;18.50;76.38
61345;BME280;47216;42.656;23.232;2023-07-08T01:33:06;94183.41;;;18.58;76.60
61345;BME280;47216;42.656;23.232;2023-07-08T01:36:00;94178.28;;;18.47;75.92
61345;BME280;47216;42.656;23.232;2023-07-08T01:38:48;94181.25;;;18.60;75.73
61345;BME280;47216;42.656;23.232;2023-07-08T01:41:28;94173.63;;;18.58;75.93
61345;BME280;47216;42.656;23.232;2023-07-08T01:44:27;94178.13;;;18.58;75.80
61345;BME280;47216;42.656;23.232;2023-07-08T01:47:08;94180.47;;;18.59;75.50
61345;BME280;47216;42.656;23.232;2023-07-08T01:49:53;94170.69;;;18.60;75.70
61345;BME280;47216;42.656;23.232;2023-07-08T01:52:22;94176.47;;;18.62;75.04
61345;BME280;47216;42.656;23.232;2023-07-08T01:55:03;94172.66;;;18.68;75.94
61345;BME280;47216;42.656;23.232;2023-07-08T01:57:50;94167.34;;;18.54;75.96
61345;BME280;47216;42.656;23.232;2023-07-08T02:00:23;94161.28;;;18.54;76.14
61345;BME280;47216;42.656;23.232;2023-07-08T02:02:53;94165.97;;;18.57;75.39
61345;BME280;47216;42.656;23.232;2023-07-08T02:05:34;94168.91;;;18.55;75.21
61345;BME280;47216;42.656;23.232;2023-07-08T02:08:15;94168.34;;;18.58;75.26
61345;BME280;47216;42.656;23.232;2023-07-08T02:10:52;94165.97;;;18.57;74.97
61345;BME280;47216;42.656;23.232;2023-07-08T02:13:37;94169.28;;;18.48;75.25
61345;BME280;47216;42.656;23.232;2023-07-08T02:16:25;94179.84;;;18.48;75.00
61345;BME280;47216;42.656;23.232;2023-07-08T02:19:02;94171.44;;;18.46;75.25
61345;BME280;47216;42.656;23.232;2023-07-08T02:21:49;94182.59;;;18.57;75.68
61345;BME280;47216;42.656;23.232;2023-07-08T02:24:26;94183.31;;;18.63;74.89
61345;BME280;47216;42.656;23.232;2023-07-08T02:27:18;94182.09;;;18.55;75.27
61345;BME280;47216;42.656;23.232;2023-07-08T02:33:26;94189.38;;;18.63;75.27
61345;BME280;47216;42.656;23.232;2023-07-08T02:36:16;94190.47;;;18.62;75.45
61345;BME280;47216;42.656;23.232;2023-07-08T02:38:56;94187.09;;;18.57;75.93
61345;BME280;47216;42.656;23.232;2023-07-08T02:41:26;94190.63;;;18.52;75.64
61345;BME280;47216;42.656;23.232;2023-07-08T02:44:01;94189.84;;;18.52;75.72
61345;BME280;47216;42.656;23.232;2023-07-08T02:46:45;94203.63;;;18.48;75.78
61345;BME280;47216;42.656;23.232;2023-07-08T02:52:31;94209.72;;;18.30;75.74
61345;BME280;47216;42.656;23.232;2023-07-08T02:58:07;94193.69;;;18.40;75.45
61345;BME280;47216;42.656;23.232;2023-07-08T03:00:58;94206.47;;;18.52;74.82
61345;BME280;47216;42.656;23.232;2023-07-08T03:03:36;94206.00;;;18.64;75.19
61345;BME280;47216;42.656;23.232;2023-07-08T03:06:31;94211.91;;;18.75;74.99
61345;BME280;47216;42.656;23.232;2023-07-08T03:09:27;94214.56;;;18.75;75.29
61345;BME280;47216;42.656;23.232;2023-07-08T03:12:12;94216.94;;;18.76;75.08
61345;BME280;47216;42.656;23.232;2023-07-08T03:15:01;94213.94;;;18.64;75.35
61345;BME280;47216;42.656;23.232;2023-07-08T03:17:32;94207.28;;;18.66;75.38
61345;BME280;47216;42.656;23.232;2023-07-08T03:20:28;94202.25;;;18.51;75.60
61345;BME280;47216;42.656;23.232;2023-07-08T03:23:13;94201.97;;;18.53;75.91
61345;BME280;47216;42.656;23.232;2023-07-08T03:25:53;94201.97;;;18.53;75.95
61345;BME280;47216;42.656;23.232;2023-07-08T03:28:32;94195.31;;;18.55;75.82
61345;BME280;47216;42.656;23.232;2023-07-08T03:31:11;94195.22;;;18.46;76.32
61345;BME280;47216;42.656;23.232;2023-07-08T03:37:02;94208.41;;;18.46;76.42
61345;BME280;47216;42.656;23.232;2023-07-08T03:39:40;94193.78;;;18.35;76.39
61345;BME280;47216;42.656;23.232;2023-07-08T03:42:32;94180.59;;;18.35;75.32
61345;BME280;47216;42.656;23.232;2023-07-08T03:45:04;94184.78;;;18.36;76.03
61345;BME280;47216;42.656;23.232;2023-07-08T03:47:38;94189.16;;;18.27;76.52
61345;BME280;47216;42.656;23.232;2023-07-08T03:50:23;94195.44;;;18.31;76.82
61345;BME280;47216;42.656;23.232;2023-07-08T03:53:10;94188.59;;;18.30;77.02
61345;BME280;47216;42.656;23.232;2023-07-08T03:56:02;94185.88;;;18.35;77.16
61345;BME280;47216;42.656;23.232;2023-07-08T03:58:36;94174.13;;;18.41;77.05
61345;BME280;47216;42.656;23.232;2023-07-08T04:01:15;94173.59;;;18.44;76.86
61345;BME280;47216;42.656;23.232;2023-07-08T04:04:04;94179.28;;;18.52;76.95
61345;BME280;47216;42.656;23.232;2023-07-08T04:06:36;94179.09;;;18.62;76.99
61345;BME280;47216;42.656;23.232;2023-07-08T04:09:19;94187.31;;;18.60;77.20
61345;BME280;47216;42.656;23.232;2023-07-08T04:12:05;94192.81;;;18.64;76.84
61345;BME280;47216;42.656;23.232;2023-07-08T04:14:36;94193.66;;;18.78;76.05
61345;BME280;47216;42.656;23.232;2023-07-08T04:17:35;94186.44;;;18.84;75.19
61345;BME280;47216;42.656;23.232;2023-07-08T04:23:06;94187.25;;;18.98;75.02
61345;BME280;47216;42.656;23.232;2023-07-08T04:25:49;94186.59;;;19.06;75.12
61345;BME280;47216;42.656;23.232;2023-07-08T04:28:36;94195.44;;;18.97;73.77
61345;BME280;47216;42.656;23.232;2023-07-08T04:31:24;94200.34;;;19.03;73.89
61345;BME280;47216;42.656;23.232;2023-07-08T04:34:11;94210.78;;;19.14;74.45
61345;BME280;47216;42.656;23.232;2023-07-08T04:39:41;94206.06;;;19.24;72.83
61345;BME280;47216;42.656;23.232;2023-07-08T04:42:40;94211.75;;;19.31;72.12
61345;BME280;47216;42.656;23.232;2023-07-08T04:45:16;94200.22;;;19.41;72.25
61345;BME280;47216;42.656;23.232;2023-07-08T04:48:04;94199.63;;;19.58;71.68
61345;BME280;47216;42.656;23.232;2023-07-08T04:50:46;94205.28;;;19.65;71.90
61345;BME280;47216;42.656;23.232;2023-07-08T04:53:40;94205.59;;;19.78;70.66
61345;BME280;47216;42.656;23.232;2023-07-08T04:56:11;94208.34;;;19.72;70.72
61345;BME280;47216;42.656;23.232;2023-07-08T04:58:56;94210.22;;;19.86;70.62
61345;BME280;47216;42.656;23.232;2023-07-08T05:01:41;94221.97;;;19.80;70.45
61345;BME280;47216;42.656;23.232;2023-07-08T05:04:31;94222.34;;;19.87;70.85
61345;BME280;47216;42.656;23.232;2023-07-08T05:07:10;94218.63;;;19.88;69.92
61345;BME280;47216;42.656;23.232;2023-07-08T05:09:41;94225.47;;;19.89;70.53
61345;BME280;47216;42.656;23.232;2023-07-08T05:12:11;94230.19;;;19.64;70.35
61345;BME280;47216;42.656;23.232;2023-07-08T05:15:12;94229.22;;;19.60;70.09
61345;BME280;47216;42.656;23.232;2023-07-08T05:17:47;94228.63;;;19.63;70.86
61345;BME280;47216;42.656;23.232;2023-07-08T05:20:22;94225.72;;;19.79;70.37
61345;BME280;47216;42.656;23.232;2023-07-08T05:23:04;94230.59;;;19.99;70.02
61345;BME280;47216;42.656;23.232;2023-07-08T05:25:43;94233.13;;;20.04;69.13
61345;BME280;47216;42.656;23.232;2023-07-08T05:28:14;94220.78;;;20.00;68.35
61345;BME280;47216;42.656;23.232;2023-07-08T05:31:05;94224.88;;;20.20;68.40
61345;BME280;47216;42.656;23.232;2023-07-08T05:36:44;94223.06;;;20.29;67.59
61345;BME280;47216;42.656;23.232;2023-07-08T05:39:14;94228.75;;;20.36;67.68
61345;BME280;47216;42.656;23.232;2023-07-08T05:42:07;94230.94;;;20.20;67.82
61345;BME280;47216;42.656;23.232;2023-07-08T05:44:45;94239.28;;;20.13;68.41
61345;BME280;47216;42.656;23.232;2023-07-08T05:47:36;94248.88;;;20.23;68.74
61345;BME280;47216;42.656;23.232;2023-07-08T05:50:12;94250.09;;;20.40;69.32
61345;BME280;47216;42.656;23.232;2023-07-08T05:52:49;94255.00;;;20.46;68.90
61345;BME280;47216;42.656;23.232;2023-07-08T05:55:32;94252.63;;;20.45;68.28
61345;BME280;47216;42.656;23.232;2023-07-08T05:58:04;94252.22;;;20.51;68.12
61345;BME280;47216;42.656;23.232;2023-07-08T06:00:36;94254.38;;;20.49;66.88
61345;BME280;47216;42.656;23.232;2023-07-08T06:03:06;94251.84;;;20.44;66.88
61345;BME280;47216;42.656;23.232;2023-07-08T06:05:37;94259.72;;;20.35;68.14
61345;BME280;47216;42.656;23.232;2023-07-08T06:08:37;94255.28;;;20.08;68.68
61345;BME280;47216;42.656;23.232;2023-07-08T06:11:07;94264.69;;;20.01;69.16
61345;BME280;47216;42.656;23.232;2023-07-08T06:13:48;94257.22;;;20.17;69.10
61345;BME280;47216;42.656;23.232;2023-07-08T06:16:17;94261.34;;;20.23;68.98
61345;BME280;47216;42.656;23.232;2023-07-08T06:18:46;94263.41;;;19.98;68.86
61345;BME280;47216;42.656;23.232;2023-07-08T06:21:27;94270.69;;;20.06;68.26
61345;BME280;47216;42.656;23.232;2023-07-08T06:24:05;94275.09;;;19.97;68.57
61345;BME280;47216;42.656;23.232;2023-07-08T06:26:35;94266.66;;;19.95;69.19
61345;BME280;47216;42.656;23.232;2023-07-08T06:29:07;94273.63;;;19.91;68.82
61345;BME280;47216;42.656;23.232;2023-07-08T06:31:52;94265.28;;;19.84;68.83
61345;BME280;47216;42.656;23.232;2023-07-08T06:34:36;94273.13;;;19.89;68.23
61345;BME280;47216;42.656;23.232;2023-07-08T06:37:08;94265.28;;;19.70;69.91
61345;BME280;47216;42.656;23.232;2023-07-08T06:39:46;94267.25;;;19.92;69.57
61345;BME280;47216;42.656;23.232;2023-07-08T06:42:20;94274.59;;;19.95;69.21
61345;BME280;47216;42.656;23.232;2023-07-08T06:44:50;94265.78;;;19.86;69.32
61345;BME280;47216;42.656;23.232;2023-07-08T06:47:30;94265.13;;;19.80;70.16
61345;BME280;47216;42.656;23.232;2023-07-08T06:50:01;94270.78;;;19.73;70.35
61345;BME280;47216;42.656;23.232;2023-07-08T06:52:30;94274.31;;;19.83;70.29
61345;BME280;47216;42.656;23.232;2023-07-08T06:55:06;94272.94;;;19.85;69.53
61345;BME280;47216;42.656;23.232;2023-07-08T06:57:35;94264.50;;;19.97;70.33
61345;BME280;47216;42.656;23.232;2023-07-08T07:00:08;94271.38;;;19.84;69.35
61345;BME280;47216;42.656;23.232;2023-07-08T07:02:38;94270.78;;;19.73;69.75
61345;BME280;47216;42.656;23.232;2023-07-08T07:05:09;94273.94;;;19.76;69.58
61345;BME280;47216;42.656;23.232;2023-07-08T07:07:38;94275.00;;;19.75;70.52
61345;BME280;47216;42.656;23.232;2023-07-08T07:10:10;94275.28;;;19.87;70.34
61345;BME280;47216;42.656;23.232;2023-07-08T07:13:00;94279.03;;;19.86;69.02
61345;BME280;47216;42.656;23.232;2023-07-08T07:15:36;94288.22;;;19.88;69.41
61345;BME280;47216;42.656;23.232;2023-07-08T07:18:09;94294.91;;;19.86;69.52
61345;BME280;47216;42.656;23.232;2023-07-08T07:21:01;94297.66;;;19.81;69.17
61345;BME280;47216;42.656;23.232;2023-07-08T07:23:43;94302.16;;;19.80;70.11
61345;BME280;47216;42.656;23.232;2023-07-08T07:26:24;94304.31;;;19.92;69.14
61345;BME280;47216;42.656;23.232;2023-07-08T07:29:01;94308.03;;;19.91;69.24
61345;BME280;47216;42.656;23.232;2023-07-08T07:31:49;94315.59;;;19.98;68.53
61345;BME280;47216;42.656;23.232;2023-07-08T07:34:26;94312.94;;;20.11;68.97
61345;BME280;47216;42.656;23.232;2023-07-08T07:36:58;94318.22;;;20.11;67.50
61345;BME280;47216;42.656;23.232;2023-07-08T07:39:32;94320.56;;;20.27;67.82
61345;BME280;47216;42.656;23.232;2023-07-08T07:42:10;94310.75;;;20.41;67.50
61345;BME280;47216;42.656;23.232;2023-07-08T07:44:57;94309.06;;;20.45;65.87
61345;BME280;47216;42.656;23.232;2023-07-08T07:47:29;94304.25;;;20.61;64.75
61345;BME280;47216;42.656;23.232;2023-07-08T07:49:59;94307.97;;;20.60;63.43
61345;BME280;47216;42.656;23.232;2023-07-08T07:52:32;94313.44;;;20.77;65.55
61345;BME280;47216;42.656;23.232;2023-07-08T07:55:22;94313.53;;;20.72;65.29
61345;BME280;47216;42.656;23.232;2023-07-08T07:58:02;94312.41;;;20.87;65.24
61345;BME280;47216;42.656;23.232;2023-07-08T08:00:42;94317.88;;;20.91;64.20
61345;BME280;47216;42.656;23.232;2023-07-08T08:03:22;94304.16;;;20.89;62.28
61345;BME280;47216;42.656;23.232;2023-07-08T08:05:51;94312.13;;;20.89;62.37
61345;BME280;47216;42.656;23.232;2023-07-08T08:08:22;94309.81;;;20.96;62.56
61345;BME280;47216;42.656;23.232;2023-07-08T08:11:02;94310.00;;;20.99;62.88
61345;BME280;47216;42.656;23.232;2023-07-08T08:13:40;94302.81;;;21.00;62.40
61345;BME280;47216;42.656;23.232;2023-07-08T08:16:23;94308.47;;;21.07;62.74
61345;BME280;47216;42.656;23.232;2023-07-08T08:18:58;94304.13;;;21.34;62.31
61345;BME280;47216;42.656;23.232;2023-07-08T08:21:32;94305.78;;;21.44;62.75
61345;BME280;47216;42.656;23.232;2023-07-08T08:24:12;94309.09;;;21.49;61.94
61345;BME280;47216;42.656;23.232;2023-07-08T08:26:51;94300.22;;;21.54;61.30
61345;BME280;47216;42.656;23.232;2023-07-08T08:29:19;94311.38;;;21.73;61.91
61345;BME280;47216;42.656;23.232;2023-07-08T08:31:57;94314.44;;;21.58;61.04
61345;BME280;47216;42.656;23.232;2023-07-08T08:34:37;94309.66;;;21.69;61.29
61345;BME280;47216;42.656;23.232;2023-07-08T08:37:14;94309.28;;;21.93;61.04
61345;BME280;47216;42.656;23.232;2023-07-08T08:39:55;94304.00;;;22.10;59.54
61345;BME280;47216;42.656;23.232;2023-07-08T08:42:31;94305.56;;;22.11;59.34
61345;BME280;47216;42.656;23.232;2023-07-08T08:45:14;94305.56;;;22.11;58.77
61345;BME280;47216;42.656;23.232;2023-07-08T08:47:49;94297.44;;;22.08;59.52
61345;BME280;47216;42.656;23.232;2023-07-08T08:50:35;94303.47;;;22.31;59.73
61345;BME280;47216;42.656;23.232;2023-07-08T08:53:16;94289.72;;;22.29;58.74
61345;BME280;47216;42.656;23.232;2023-07-08T08:56:04;94292.53;;;22.23;57.97
61345;BME280;47216;42.656;23.232;2023-07-08T08:58:43;94300.22;;;22.42;57.86
61345;BME280;47216;42.656;23.232;2023-07-08T09:01:21;94288.19;;;22.62;58.43
61345;BME280;47216;42.656;23.232;2023-07-08T09:04:05;94298.50;;;22.73;57.95
61345;BME280;47216;42.656;23.232;2023-07-08T09:09:41;94295.72;;;22.69;57.82
61345;BME280;47216;42.656;23.232;2023-07-08T09:12:34;94289.91;;;22.67;58.39
61345;BME280;47216;42.656;23.232;2023-07-08T09:15:14;94294.31;;;22.72;57.81
61345;BME280;47216;42.656;23.232;2023-07-08T09:18:20;94292.91;;;23.00;57.29
61345;BME280;47216;42.656;23.232;2023-07-08T09:21:16;94295.06;;;23.24;56.58
61345;BME280;47216;42.656;23.232;2023-07-08T09:24:07;94298.53;;;23.07;55.26
61345;BME280;47216;42.656;23.232;2023-07-08T09:26:45;94293.06;;;23.04;55.75
61345;BME280;47216;42.656;23.232;2023-07-08T09:29:34;94291.00;;;23.10;55.71
61345;BME280;47216;42.656;23.232;2023-07-08T09:32:16;94285.97;;;23.34;56.47
61345;BME280;47216;42.656;23.232;2023-07-08T09:35:09;94286.88;;;23.38;55.65
61345;BME280;47216;42.656;23.232;2023-07-08T09:37:48;94280.75;;;23.55;55.05
61345;BME280;47216;42.656;23.232;2023-07-08T09:40:46;94259.09;;;23.74;54.43
61345;BME280;47216;42.656;23.232;2023-07-08T09:43:36;94268.63;;;23.75;54.02
61345;BME280;47216;42.656;23.232;2023-07-08T09:46:15;94260.94;;;23.82;54.32
61345;BME280;47216;42.656;23.232;2023-07-08T09:49:20;94256.00;;;23.93;54.26
61345;BME280;47216;42.656;23.232;2023-07-08T09:52:12;94250.72;;;23.84;53.14
61345;BME280;47216;42.656;23.232;2023-07-08T09:57:37;94250.09;;;23.87;53.93
61345;BME280;47216;42.656;23.232;2023-07-08T10:00:25;94253.22;;;23.89;53.29
61345;BME280;47216;42.656;23.232;2023-07-08T10:03:08;94262.97;;;23.68;53.90
61345;BME280;47216;42.656;23.232;2023-07-08T10:05:59;94253.38;;;23.37;52.60
61345;BME280;47216;42.656;23.232;2023-07-08T10:08:41;94247.41;;;23.40;53.45
61345;BME280;47216;42.656;23.232;2023-07-08T10:11:39;94251.31;;;23.43;53.47
61345;BME280;47216;42.656;23.232;2023-07-08T10:14:34;94253.63;;;23.62;54.49
61345;BME280;47216;42.656;23.232;2023-07-08T10:17:28;94245.38;;;23.84;53.60
61345;BME280;47216;42.656;23.232;2023-07-08T10:20:13;94245.03;;;23.95;53.40
61345;BME280;47216;42.656;23.232;2023-07-08T10:22:59;94235.94;;;23.96;52.99
61345;BME280;47216;42.656;23.232;2023-07-08T10:28:38;94237.41;;;24.14;54.00
61345;BME280;47216;42.656;23.232;2023-07-08T10:31:24;94228.63;;;24.14;52.95
61345;BME280;47216;42.656;23.232;2023-07-08T10:34:27;94218.28;;;24.12;52.48
61345;BME280;47216;42.656;23.232;2023-07-08T10:37:09;94221.16;;;24.07;53.78
61345;BME280;47216;42.656;23.232;2023-07-08T10:40:13;94222.00;;;23.99;53.72
61345;BME280;47216;42.656;23.232;2023-07-08T10:43:12;94221.31;;;24.31;52.54
61345;BME280;47216;42.656;23.232;2023-07-08T10:46:09;94221.91;;;24.58;51.86
61345;BME280;47216;42.656;23.232;2023-07-08T10:49:12;94200.91;;;24.57;50.06
61345;BME280;47216;42.656;23.232;2023-07-08T10:52:23;94209.22;;;24.55;50.24
61345;BME280;47216;42.656;23.232;2023-07-08T10:55:17;94214.56;;;24.55;50.73
61345;BME280;47216;42.656;23.232;2023-07-08T10:58:13;94210.84;;;24.68;50.55
61345;BME280;47216;42.656;23.232;2023-07-08T11:01:09;94201.22;;;24.88;50.03
61345;BME280;47216;42.656;23.232;2023-07-08T11:04:22;94203.41;;;25.07;49.82
61345;BME280;47216;42.656;23.232;2023-07-08T11:07:02;94206.59;;;25.22;49.99
61345;BME280;47216;42.656;23.232;2023-07-08T11:09:39;94194.53;;;25.15;49.42
61345;BME280;47216;42.656;23.232;2023-07-08T11:12:18;94204.38;;;25.36;49.39
61345;BME280;47216;42.656;23.232;2023-07-08T11:15:01;94200.25;;;25.51;48.70
61345;BME280;47216;42.656;23.232;2023-07-08T11:20:39;94190.59;;;25.58;49.13
61345;BME280;47216;42.656;23.232;2023-07-08T11:23:36;94191.06;;;25.61;47.54
61345;BME280;47216;42.656;23.232;2023-07-08T11:26:27;94188.25;;;25.57;48.04
61345;BME280;47216;42.656;23.232;2023-07-08T11:29:16;94192.69;;;25.53;49.24
61345;BME280;47216;42.656;23.232;2023-07-08T11:32:08;94194.38;;;25.33;47.19
61345;BME280;47216;42.656;23.232;2023-07-08T11:35:03;94193.25;;;25.34;48.56
61345;BME280;47216;42.656;23.232;2023-07-08T11:37:38;94176.81;;;25.44;48.40
61345;BME280;47216;42.656;23.232;2023-07-08T11:43:07;94187.47;;;25.32;47.52
61345;BME280;47216;42.656;23.232;2023-07-08T11:45:56;94187.91;;;25.46;47.13
61345;BME280;47216;42.656;23.232;2023-07-08T11:48:41;94193.69;;;25.36;47.41
61345;BME280;47216;42.656;23.232;2023-07-08T11:51:35;94197.03;;;25.45;48.24
61345;BME280;47216;42.656;23.232;2023-07-08T11:54:17;94181.91;;;25.49;47.64
61345;BME280;47216;42.656;23.232;2023-07-08T11:57:14;94195.91;;;25.22;46.38
61345;BME280;47216;42.656;23.232;2023-07-08T12:00:11;94192.06;;;25.10;47.71
61345;BME280;47216;42.656;23.232;2023-07-08T12:02:56;94187.34;;;25.28;47.04
61345;BME280;47216;42.656;23.232;2023-07-08T12:05:40;94190.03;;;25.41;46.64
61345;BME280;47216;42.656;23.232;2023-07-08T12:08:20;94193.28;;;25.71;46.45
61345;BME280;47216;42.656;23.232;2023-07-08T12:11:00;94196.16;;;25.66;45.00
61345;BME280;47216;42.656;23.232;2023-07-08T12:13:34;94191.28;;;25.68;45.81
61345;BME280;47216;42.656;23.232;2023-07-08T12:16:12;94205.94;;;25.62;47.15
61345;BME280;47216;42.656;23.232;2023-07-08T12:18:48;94196.72;;;25.71;46.29
61345;BME280;47216;42.656;23.232;2023-07-08T12:21:24;94192.84;;;25.93;45.50
61345;BME280;47216;42.656;23.232;2023-07-08T12:24:06;94192.28;;;25.88;45.12
61345;BME280;47216;42.656;23.232;2023-07-08T12:26:37;94191.72;;;26.07;45.14
61345;BME280;47216;42.656;23.232;2023-07-08T12:29:08;94180.94;;;26.31;45.32
61345;BME280;47216;42.656;23.232;2023-07-08T12:31:44;94188.69;;;26.20;45.12
61345;BME280;47216;42.656;23.232;2023-07-08T12:34:22;94180.75;;;26.24;46.16
61345;BME280;47216;42.656;23.232;2023-07-08T12:37:04;94176.25;;;26.40;46.43
61345;BME280;47216;42.656;23.232;2023-07-08T12:42:34;94176.00;;;26.58;46.33
61345;BME280;47216;42.656;23.232;2023-07-08T12:45:15;94177.59;;;26.75;45.70
61345;BME280;47216;42.656;23.232;2023-07-08T12:47:49;94188.34;;;26.63;45.02
61345;BME280;47216;42.656;23.232;2023-07-08T12:50:19;94180.22;;;26.59;45.30
61345;BME280;47216;42.656;23.232;2023-07-08T12:55:58;94183.34;;;26.08;44.89
61345;BME280;47216;42.656;23.232;2023-07-08T12:58:35;94179.44;;;26.06;45.97
61345;BME280;47216;42.656;23.232;2023-07-08T13:01:17;94183.53;;;26.15;45.07
61345;BME280;47216;42.656;23.232;2023-07-08T13:03:51;94175.31;;;26.08;45.28
61345;BME280;47216;42.656;23.232;2023-07-08T13:06:29;94200.84;;;26.06;45.83
61345;BME280;47216;42.656;23.232;2023-07-08T13:09:07;94192.16;;;25.84;46.08
61345;BME280;47216;42.656;23.232;2023-07-08T13:11:43;94180.13;;;25.66;46.50
61345;BME280;47216;42.656;23.232;2023-07-08T13:14:26;94195.94;;;25.58;47.56
61345;BME280;47216;42.656;23.232;2023-07-08T13:17:06;94205.50;;;25.47;48.14
61345;BME280;47216;42.656;23.232;2023-07-08T13:19:40;94193.69;;;25.48;47.64
61345;BME280;47216;42.656;23.232;2023-07-08T13:22:28;94202.38;;;25.45;47.21
61345;BME280;47216;42.656;23.232;2023-07-08T13:25:17;94190.13;;;25.32;46.88
61345;BME280;47216;42.656;23.232;2023-07-08T13:28:22;94198.03;;;25.28;46.57
61345;BME280;47216;42.656;23.232;2023-07-08T13:31:22;94190.56;;;25.34;47.20
61345;BME280;47216;42.656;23.232;2023-07-08T13:34:09;94180.13;;;25.41;46.67
61345;BME280;47216;42.656;23.232;2023-07-08T13:36:51;94187.69;;;25.39;46.42
61345;BME280;47216;42.656;23.232;2023-07-08T13:39:42;94192.72;;;25.65;46.64
61345;BME280;47216;42.656;23.232;2023-07-08T13:42:28;94183.25;;;25.68;45.87
61345;BME280;47216;42.656;23.232;2023-07-08T13:45:19;94187.81;;;25.67;46.23
61345;BME280;47216;42.656;23.232;2023-07-08T13:51:10;94175.22;;;25.80;47.29
61345;BME280;47216;42.656;23.232;2023-07-08T13:56:41;94169.78;;;25.76;47.11
61345;BME280;47216;42.656;23.232;2023-07-08T13:59:22;94182.91;;;25.82;46.86
61345;BME280;47216;42.656;23.232;2023-07-08T14:02:17;94175.88;;;26.02;47.37
61345;BME280;47216;42.656;23.232;2023-07-08T14:05:11;94175.88;;;26.14;47.13
61345;BME280;47216;42.656;23.232;2023-07-08T14:07:56;94174.97;;;26.22;46.40
61345;BME280;47216;42.656;23.232;2023-07-08T14:10:34;94163.38;;;26.30;46.68
61345;BME280;47216;42.656;23.232;2023-07-08T14:13:05;94169.88;;;26.45;47.11
61345;BME280;47216;42.656;23.232;2023-07-08T14:15:51;94171.66;;;26.41;46.48
61345;BME280;47216;42.656;23.232;2023-07-08T14:18:37;94177.38;;;26.27;45.83
61345;BME280;47216;42.656;23.232;2023-07-08T14:21:17;94174.56;;;26.48;45.60
61345;BME280;47216;42.656;23.232;2023-07-08T14:24:14;94177.63;;;26.34;44.96
61345;BME280;47216;42.656;23.232;2023-07-08T14:27:05;94171.19;;;26.23;45.98
61345;BME280;47216;42.656;23.232;2023-07-08T14:29:42;94173.69;;;26.32;45.36
61345;BME280;47216;42.656;23.232;2023-07-08T14:32:25;94177.13;;;26.45;46.00
61345;BME280;47216;42.656;23.232;2023-07-08T14:35:17;94188.06;;;26.39;45.79
61345;BME280;47216;42.656;23.232;2023-07-08T14:40:41;94187.22;;;26.23;45.44
61345;BME280;47216;42.656;23.232;2023-07-08T14:43:17;94185.50;;;25.90;45.00
61345;BME280;47216;42.656;23.232;2023-07-08T14:46:03;94174.34;;;26.01;47.26
61345;BME280;47216;42.656;23.232;2023-07-08T14:48:39;94182.56;;;26.08;47.88
61345;BME280;47216;42.656;23.232;2023-07-08T14:51:27;94179.69;;;26.01;48.33
61345;BME280;47216;42.656;23.232;2023-07-08T14:54:06;94179.25;;;25.86;46.84
61345;BME280;47216;42.656;23.232;2023-07-08T14:56:41;94181.34;;;25.81;47.04
61345;BME280;47216;42.656;23.232;2023-07-08T14:59:30;94178.81;;;25.72;47.68
61345;BME280;47216;42.656;23.232;2023-07-08T15:02:19;94181.47;;;25.60;47.13
61345;BME280;47216;42.656;23.232;2023-07-08T15:05:17;94192.59;;;25.49;48.41